createdAt,value
2019-01-05T00:01:07.241Z,98753.27
2019-01-05T00:03:34.768Z,98738.63
2019-01-05T00:06:06.332Z,98740.75
2019-01-05T00:08:38.818Z,98737.33
2019-01-05T00:11:25.568Z,98738.20
2019-01-05T00:14:08.088Z,98734.75
2019-01-05T00:16:52.549Z,98736.92
2019-01-05T00:19:25.212Z,98730.86
2019-01-05T00:21:54.722Z,98731.32
2019-01-05T00:24:24.240Z,98729.57
2019-01-05T00:26:56.802Z,98736.91
2019-01-05T00:29:39.576Z,98730.01
2019-01-05T00:32:10.552Z,98730.86
2019-01-05T00:34:38.011Z,98727.86
2019-01-05T00:37:06.547Z,98723.55
2019-01-05T00:39:49.188Z,98724.00
2019-01-05T00:42:16.205Z,98718.82
2019-01-05T00:44:48.775Z,98737.32
2019-01-05T00:47:30.611Z,98737.33
2019-01-05T00:50:16.183Z,98737.75
2019-01-05T00:53:04.085Z,98731.73
2019-01-05T00:55:31.555Z,98729.13
2019-01-05T00:58:04.170Z,98735.99
2019-01-05T01:00:32.776Z,98729.99
2019-01-05T01:03:05.334Z,98721.36
2019-01-05T01:05:37.194Z,98724.83
2019-01-05T01:08:23.025Z,98719.66
2019-01-05T01:11:04.843Z,98716.64
2019-01-05T01:13:37.374Z,98720.95
2019-01-05T01:16:22.095Z,98721.37
2019-01-05T01:19:05.693Z,98722.66
2019-01-05T01:21:44.254Z,98716.20
2019-01-05T01:24:12.224Z,98714.47
2019-01-05T01:26:55.781Z,98720.52
2019-01-05T01:29:27.725Z,98722.66
2019-01-05T01:32:11.433Z,98725.70
2019-01-05T01:34:40.088Z,98720.09
2019-01-05T01:37:26.759Z,98727.83
2019-01-05T01:40:02.374Z,98723.11
2019-01-05T01:42:49.084Z,98729.99
2019-01-05T01:45:21.545Z,98726.11
2019-01-05T01:47:52.335Z,98726.55
2019-01-05T01:50:24.881Z,98720.49
2019-01-05T01:55:52.129Z,98714.36
2019-01-05T01:58:40.370Z,98712.71
2019-01-05T02:04:08.635Z,98709.69
2019-01-05T02:06:56.216Z,98709.74
2019-01-05T02:12:18.785Z,98720.02
2019-01-05T02:14:46.190Z,98721.78
2019-01-05T02:17:19.145Z,98720.94
2019-01-05T02:22:52.042Z,98716.13
2019-01-05T02:25:41.354Z,98720.95
2019-01-05T02:28:37.869Z,98708.45
2019-01-05T02:31:18.585Z,98707.20
2019-01-05T02:33:54.807Z,98700.76
2019-01-05T02:36:43.304Z,98686.54
2019-01-05T02:42:55.057Z,98675.73
2019-01-05T02:45:37.707Z,98681.80
2019-01-05T02:48:14.120Z,98676.63
2019-01-05T02:50:58.406Z,98678.36
2019-01-05T02:53:31.230Z,98674.08
2019-01-05T02:56:17.845Z,98681.38
2019-01-05T02:59:23.800Z,98670.19
2019-01-05T03:05:08.303Z,98664.53
2019-01-05T03:07:53.047Z,98669.73
2019-01-05T03:10:23.229Z,98674.93
2019-01-05T03:19:34.093Z,98650.27
2019-01-05T03:25:27.914Z,98662.39
2019-01-05T03:31:17.671Z,98658.08
2019-01-05T03:41:20.016Z,98643.03
2019-01-05T03:47:03.014Z,98649.09
2019-01-05T03:49:53.728Z,98637.48
2019-01-05T03:52:27.656Z,98633.61
2019-01-05T03:55:18.651Z,98632.74
2019-01-05T03:57:57.216Z,98642.61
2019-01-05T04:03:59.099Z,98637.07
2019-01-05T04:06:35.786Z,98638.75
2019-01-05T04:09:14.945Z,98637.86
2019-01-05T04:15:07.966Z,98639.19
2019-01-05T04:20:56.845Z,98637.48
2019-01-05T04:23:43.678Z,98633.17
2019-01-05T04:26:28.646Z,98631.44
2019-01-05T04:29:06.147Z,98634.89
2019-01-05T04:35:23.321Z,98642.65
2019-01-05T04:40:59.536Z,98642.23
2019-01-05T04:43:40.007Z,98631.47
2019-01-05T04:46:36.029Z,98626.31
2019-01-05T04:49:20.843Z,98628.86
2019-01-05T04:52:06.349Z,98625.42
2019-01-05T04:55:05.113Z,98626.29
2019-01-05T04:57:37.484Z,98613.39
2019-01-05T05:00:18.897Z,98613.39
2019-01-05T05:06:12.826Z,98606.11
2019-01-05T05:11:54.398Z,98607.38
2019-01-05T05:14:26.702Z,98597.48
2019-01-05T05:17:18.974Z,98590.60
2019-01-05T05:22:59.629Z,98594.94
2019-01-05T05:29:15.456Z,98595.78
2019-01-05T05:31:50.062Z,98591.47
2019-01-05T05:37:48.827Z,98607.39
2019-01-05T05:44:08.637Z,98605.66
2019-01-05T05:46:59.404Z,98609.09
2019-01-05T05:49:38.303Z,98608.23
2019-01-05T05:56:02.082Z,98620.27
2019-01-05T06:02:09.931Z,98631.90
2019-01-05T06:08:27.323Z,98631.03
2019-01-05T06:11:02.064Z,98628.02
2019-01-05T06:16:38.000Z,98623.30
2019-01-05T06:19:11.333Z,98616.42
2019-01-05T06:22:10.134Z,98613.39
2019-01-05T06:25:00.166Z,98618.95
2019-01-05T06:27:42.984Z,98618.97
2019-01-05T06:33:21.356Z,98628.02
2019-01-05T06:39:27.154Z,98616.41
2019-01-05T06:45:19.879Z,98623.73
2019-01-05T06:48:01.887Z,98633.56
2019-01-05T06:53:44.723Z,98642.20
2019-01-05T06:59:48.443Z,98634.03
2019-01-05T07:02:32.810Z,98640.45
2019-01-05T07:05:09.703Z,98632.30
2019-01-05T07:07:56.429Z,98642.56
2019-01-05T07:11:01.282Z,98652.85
2019-01-05T07:20:30.716Z,98663.73
2019-01-05T07:26:27.801Z,98663.75
2019-01-05T07:29:10.459Z,98674.05
2019-01-05T07:32:00.811Z,98678.76
2019-01-05T07:37:58.963Z,98675.32
2019-01-05T07:44:02.272Z,98676.23
2019-01-05T07:46:40.338Z,98683.92
2019-01-05T07:49:24.508Z,98680.48
2019-01-05T07:55:15.179Z,98683.52
2019-01-05T08:04:14.630Z,98707.96
2019-01-05T08:06:57.499Z,98711.87
2019-01-05T08:09:36.571Z,98717.48
2019-01-05T08:12:33.461Z,98716.17
2019-01-05T08:18:32.243Z,98718.34
2019-01-05T08:21:26.280Z,98735.59
2019-01-05T08:27:04.429Z,98732.98
2019-01-05T08:32:48.076Z,98735.13
2019-01-05T08:35:34.622Z,98743.33
2019-01-05T08:41:31.835Z,98754.07
2019-01-05T08:47:23.118Z,98751.41
2019-01-05T08:53:07.382Z,98750.19
2019-01-05T08:55:48.244Z,98763.58
2019-01-05T08:58:23.183Z,98762.27
2019-01-05T09:00:55.188Z,98767.84
2019-01-05T09:07:18.012Z,98758.63
2019-01-05T09:10:08.700Z,98761.28
2019-01-05T09:16:09.651Z,98764.20
2019-01-05T09:22:35.244Z,98748.61
2019-01-05T09:25:17.369Z,98750.41
2019-01-05T09:28:02.208Z,98749.95
2019-01-05T09:33:53.920Z,98753.96
2019-01-05T09:39:55.531Z,98749.95
2019-01-05T09:42:46.193Z,98754.34
2019-01-05T09:45:15.855Z,98752.18
2019-01-05T09:47:55.682Z,98744.34
2019-01-05T09:53:48.211Z,98744.25
2019-01-05T09:59:34.316Z,98749.42
2019-01-05T10:05:38.259Z,98745.78
2019-01-05T10:11:44.841Z,98734.23
2019-01-05T10:18:09.572Z,98729.38
2019-01-05T10:20:51.622Z,98718.99
2019-01-05T10:26:31.110Z,98717.39
2019-01-05T10:29:19.999Z,98718.81
2019-01-05T10:32:12.968Z,98710.46
2019-01-05T10:35:21.901Z,98694.08
2019-01-05T10:41:08.709Z,98690.22
2019-01-05T10:53:23.015Z,98689.52
2019-01-05T10:56:00.653Z,98688.58
2019-01-05T11:01:53.519Z,98689.38
2019-01-05T11:04:28.821Z,98689.39
2019-01-05T11:07:04.926Z,98687.96
2019-01-05T11:09:47.216Z,98687.82
2019-01-05T11:19:27.890Z,98677.20
2019-01-05T11:25:26.547Z,98658.77
2019-01-05T11:28:22.400Z,98663.06
2019-01-05T11:31:25.351Z,98662.05
2019-01-05T11:37:00.928Z,98667.22
2019-01-05T11:39:52.067Z,98667.54
2019-01-05T11:42:42.976Z,98665.94
2019-01-05T11:45:38.096Z,98659.48
2019-01-05T11:48:32.883Z,98673.18
2019-01-05T11:57:19.213Z,98660.41
2019-01-05T12:03:02.769Z,98663.75
2019-01-05T12:05:39.956Z,98675.73
2019-01-05T12:11:47.573Z,98657.20
2019-01-05T12:17:21.981Z,98649.60
2019-01-05T12:20:11.676Z,98651.73
2019-01-05T12:22:54.743Z,98646.75
2019-01-05T12:29:01.131Z,98639.78
2019-01-05T12:31:43.788Z,98644.83
2019-01-05T12:40:48.528Z,98650.20
2019-01-05T12:43:30.257Z,98643.22
2019-01-05T12:46:03.769Z,98642.20
2019-01-05T12:51:52.551Z,98635.40
2019-01-05T12:57:53.123Z,98615.97
2019-01-05T13:00:50.759Z,98627.98
2019-01-05T13:10:21.062Z,98624.83
2019-01-05T13:13:07.122Z,98617.38
2019-01-05T13:15:56.283Z,98617.89
2019-01-05T13:21:49.707Z,98603.23
2019-01-05T13:24:35.151Z,98601.71
2019-01-05T13:30:36.868Z,98609.13
2019-01-05T13:36:23.554Z,98616.70
2019-01-05T13:38:58.360Z,98620.09
2019-01-05T13:41:50.033Z,98609.05
2019-01-05T13:44:24.379Z,98625.74
2019-01-05T13:50:31.023Z,98631.95
2019-01-05T13:53:14.995Z,98635.60
2019-01-05T13:56:02.773Z,98640.88
2019-01-05T13:58:48.994Z,98640.46
2019-01-05T14:01:37.198Z,98646.69
2019-01-05T14:04:17.394Z,98651.98
2019-01-05T14:06:50.235Z,98638.50
2019-01-05T14:12:18.246Z,98640.56
2019-01-05T14:14:46.014Z,98648.38
2019-01-05T14:17:33.257Z,98652.15
2019-01-05T14:20:11.769Z,98659.08
2019-01-05T14:25:49.778Z,98659.64
2019-01-05T14:28:19.290Z,98662.28
2019-01-05T14:30:46.687Z,98667.59
2019-01-05T14:33:19.695Z,98665.03
2019-01-05T14:36:07.875Z,98665.87
2019-01-05T14:38:53.165Z,98663.77
2019-01-05T14:41:26.475Z,98659.75
2019-01-05T14:44:09.292Z,98661.04
2019-01-05T14:46:54.542Z,98660.74
2019-01-05T14:49:29.591Z,98655.77
2019-01-05T14:52:16.293Z,98652.84
2019-01-05T14:54:49.610Z,98646.13
2019-01-05T14:57:22.611Z,98642.61
2019-01-05T14:59:52.387Z,98641.72
2019-01-05T15:02:36.600Z,98639.38
2019-01-05T15:05:09.572Z,98637.26
2019-01-05T15:07:38.990Z,98646.13
2019-01-05T15:13:07.141Z,98635.58
2019-01-05T15:15:40.095Z,98633.61
2019-01-05T15:21:21.432Z,98633.57
2019-01-05T15:24:06.517Z,98631.70
2019-01-05T15:26:34.290Z,98639.33
2019-01-05T15:29:07.240Z,98623.80
2019-01-05T15:31:36.006Z,98623.37
2019-01-05T15:34:09.111Z,98625.84
2019-01-05T15:36:36.687Z,98617.53
2019-01-05T15:39:19.890Z,98609.77
2019-01-05T15:41:47.915Z,98618.52
2019-01-05T15:44:31.180Z,98619.08
2019-01-05T15:50:10.540Z,98619.19
2019-01-05T15:52:43.521Z,98623.05
2019-01-05T15:55:21.657Z,98633.58
2019-01-05T15:57:54.707Z,98629.77
2019-01-05T16:00:32.568Z,98632.42
2019-01-05T16:03:01.969Z,98626.31
2019-01-05T16:05:35.031Z,98626.17
2019-01-05T16:08:04.024Z,98625.36
2019-01-05T16:13:29.931Z,98635.80
2019-01-05T16:16:02.991Z,98630.24
2019-01-05T16:18:46.467Z,98632.45
2019-01-05T16:21:28.947Z,98632.42
2019-01-05T16:24:12.434Z,98632.02
2019-01-05T16:26:59.246Z,98627.45
2019-01-05T16:29:38.803Z,98629.23
2019-01-05T16:32:11.169Z,98632.33
2019-01-05T16:34:48.501Z,98629.28
2019-01-05T16:40:27.403Z,98623.55
2019-01-05T16:45:52.652Z,98630.70
2019-01-05T16:48:25.826Z,98620.94
2019-01-05T16:50:55.045Z,98631.98
2019-01-05T16:53:27.954Z,98626.03
2019-01-05T16:56:01.044Z,98626.96
2019-01-05T16:58:28.878Z,98618.25
2019-01-05T17:01:07.168Z,98612.97
2019-01-05T17:03:35.953Z,98608.38
2019-01-05T17:06:18.238Z,98607.17
2019-01-05T17:08:46.114Z,98607.40
2019-01-05T17:11:13.503Z,98601.31
2019-01-05T17:16:44.167Z,98608.98
2019-01-05T17:19:12.058Z,98604.43
2019-01-05T17:21:42.818Z,98607.60
2019-01-05T17:24:10.639Z,98608.95
2019-01-05T17:26:54.865Z,98612.36
2019-01-05T17:29:22.907Z,98605.41
2019-01-05T17:31:53.105Z,98607.92
2019-01-05T17:34:22.513Z,98596.28
2019-01-05T17:36:55.424Z,98603.79
2019-01-05T17:42:20.152Z,98606.31
2019-01-05T17:44:51.473Z,98596.58
2019-01-05T17:47:21.992Z,98603.69
2019-01-05T17:50:04.391Z,98602.43
2019-01-05T17:52:36.395Z,98608.45
2019-01-05T17:55:15.525Z,98612.31
2019-01-05T17:57:44.763Z,98611.08
2019-01-05T18:03:11.666Z,98614.55
2019-01-05T18:05:56.355Z,98613.86
2019-01-05T18:08:39.068Z,98619.62
2019-01-05T18:11:09.922Z,98623.53
2019-01-05T18:13:53.177Z,98623.20
2019-01-05T18:16:26.233Z,98624.98
2019-01-05T18:18:59.136Z,98621.52
2019-01-05T18:21:33.851Z,98621.55
2019-01-05T18:24:03.734Z,98624.25
2019-01-05T18:26:32.708Z,98619.91
2019-01-05T18:29:05.667Z,98621.69
2019-01-05T18:31:39.768Z,98620.28
2019-01-05T18:34:25.429Z,98621.50
2019-01-05T18:39:54.556Z,98607.33
2019-01-05T18:42:37.957Z,98608.95
2019-01-05T18:45:06.299Z,98595.98
2019-01-05T18:47:49.606Z,98602.02
2019-01-05T18:50:22.724Z,98605.08
2019-01-05T18:53:05.946Z,98607.61
2019-01-05T18:55:39.006Z,98611.16
2019-01-05T18:58:25.281Z,98603.33
2019-01-05T19:01:05.540Z,98599.98
2019-01-05T19:03:34.905Z,98603.58
2019-01-05T19:06:07.096Z,98606.33
2019-01-05T19:08:40.217Z,98602.50
2019-01-05T19:11:08.401Z,98615.88
2019-01-05T19:13:46.855Z,98612.80
2019-01-05T19:16:35.164Z,98602.03
2019-01-05T19:19:02.578Z,98607.70
2019-01-05T19:24:28.338Z,98603.39
2019-01-05T19:27:03.262Z,98602.69
2019-01-05T19:29:36.399Z,98605.36
2019-01-05T19:32:14.082Z,98604.61
2019-01-05T19:34:41.622Z,98604.58
2019-01-05T19:37:12.469Z,98603.75
2019-01-05T19:39:45.440Z,98610.69
2019-01-05T19:42:17.412Z,98606.10
2019-01-05T19:47:45.575Z,98607.92
2019-01-05T19:50:13.771Z,98612.02
2019-01-05T19:52:49.655Z,98606.97
2019-01-05T19:55:22.802Z,98601.95
2019-01-05T19:57:55.900Z,98607.66
2019-01-05T20:00:28.440Z,98614.00
2019-01-05T20:02:58.286Z,98609.22
2019-01-05T20:05:31.444Z,98614.63
2019-01-05T20:10:58.008Z,98609.85
2019-01-05T20:13:26.340Z,98607.03
2019-01-05T20:16:10.694Z,98608.92
2019-01-05T20:18:44.623Z,98612.92
2019-01-05T20:21:13.982Z,98612.55
2019-01-05T20:26:52.195Z,98607.80
2019-01-05T20:29:36.371Z,98603.79
2019-01-05T20:32:17.760Z,98598.31
2019-01-05T20:35:04.863Z,98596.63
2019-01-05T20:37:36.824Z,98592.29
2019-01-05T20:40:14.165Z,98588.83
2019-01-05T20:45:49.430Z,98578.42
2019-01-05T20:48:19.264Z,98588.56
2019-01-05T20:50:48.587Z,98586.47
2019-01-05T20:53:16.001Z,98594.17
2019-01-05T20:55:53.337Z,98589.58
2019-01-05T21:01:23.471Z,98588.08
2019-01-05T21:03:56.563Z,98593.94
2019-01-05T21:06:29.757Z,98596.70
2019-01-05T21:09:12.375Z,98605.52
2019-01-05T21:11:44.679Z,98604.78
2019-01-05T21:14:17.631Z,98609.33
2019-01-05T21:16:50.485Z,98602.07
2019-01-05T21:19:18.827Z,98602.91
2019-01-05T21:21:51.910Z,98601.17
2019-01-05T21:24:25.200Z,98594.88
2019-01-05T21:26:58.264Z,98601.45
2019-01-05T21:29:26.635Z,98601.48
2019-01-05T21:34:53.738Z,98596.70
2019-01-05T21:40:17.349Z,98596.89
2019-01-05T21:42:50.186Z,98590.94
2019-01-05T21:45:23.174Z,98601.44
2019-01-05T21:48:08.452Z,98606.28
2019-01-05T21:50:40.825Z,98601.59
2019-01-05T21:53:09.510Z,98597.77
2019-01-05T21:58:49.384Z,98593.16
2019-01-05T22:01:22.449Z,98592.91
2019-01-05T22:03:49.853Z,98595.08
2019-01-05T22:06:22.823Z,98594.62
2019-01-05T22:09:08.079Z,98594.14
2019-01-05T22:11:50.404Z,98593.09
2019-01-05T22:14:17.900Z,98594.88
2019-01-05T22:19:51.884Z,98601.13
2019-01-05T22:22:25.683Z,98595.45
2019-01-05T22:27:52.235Z,98590.05
2019-01-05T22:30:23.614Z,98588.05
2019-01-05T22:32:53.407Z,98583.22
2019-01-05T22:35:20.871Z,98583.27
2019-01-05T22:37:50.828Z,98582.91
2019-01-05T22:40:24.829Z,98587.12
2019-01-05T22:43:09.963Z,98577.20
2019-01-05T22:45:42.126Z,98582.72
2019-01-05T22:51:20.435Z,98589.76
2019-01-05T22:53:50.204Z,98595.61
2019-01-05T22:56:19.572Z,98589.64
2019-01-05T22:59:01.912Z,98592.69
2019-01-05T23:01:34.862Z,98594.07
2019-01-05T23:04:12.967Z,98585.38
2019-01-05T23:06:46.031Z,98591.27
2019-01-05T23:09:31.275Z,98586.44
2019-01-05T23:12:04.173Z,98590.63
2019-01-05T23:14:41.499Z,98588.80
2019-01-05T23:17:10.856Z,98588.75
2019-01-05T23:19:43.807Z,98589.59
2019-01-05T23:22:11.237Z,98592.19
2019-01-05T23:24:41.399Z,98585.33
2019-01-05T23:27:14.457Z,98591.76
2019-01-05T23:29:47.440Z,98580.11
2019-01-05T23:35:11.725Z,98580.45
2019-01-05T23:37:39.352Z,98576.38
2019-01-05T23:40:08.162Z,98581.78
2019-01-05T23:42:41.190Z,98578.75
2019-01-05T23:48:09.398Z,98577.11
2019-01-05T23:50:42.521Z,98566.44
2019-01-05T23:53:09.931Z,98567.32
2019-01-05T23:58:33.094Z,98559.14
